createdAt,value
2018-09-04T00:01:35.972Z,18.25
2018-09-04T00:04:04.244Z,18.25
2018-09-04T00:06:32.484Z,18.26
2018-09-04T00:09:00.455Z,18.21
2018-09-04T00:11:28.721Z,18.35
2018-09-04T00:13:56.996Z,18.21
2018-09-04T00:16:25.256Z,18.13
2018-09-04T00:18:53.705Z,18.18
2018-09-04T00:21:21.745Z,18.19
2018-09-04T00:23:49.724Z,18.22
2018-09-04T00:26:17.986Z,18.21
2018-09-04T00:28:46.194Z,18.14
2018-09-04T00:31:14.356Z,18.09
2018-09-04T00:33:42.480Z,17.95
2018-09-04T00:36:10.716Z,17.96
2018-09-04T00:38:38.681Z,17.87
2018-09-04T00:41:06.835Z,17.81
2018-09-04T00:43:34.874Z,17.99
2018-09-04T00:46:02.861Z,17.95
2018-09-04T00:48:30.846Z,17.84
2018-09-04T00:50:58.960Z,17.82
2018-09-04T00:53:26.986Z,17.79
2018-09-04T00:55:54.995Z,17.65
2018-09-04T00:58:23.132Z,17.57
2018-09-04T01:00:51.185Z,17.48
2018-09-04T01:03:19.185Z,17.41
2018-09-04T01:05:47.824Z,17.36
2018-09-04T01:08:15.934Z,17.27
2018-09-04T01:10:43.952Z,17.29
2018-09-04T01:13:12.109Z,17.29
2018-09-04T01:15:40.136Z,17.26
2018-09-04T01:18:08.739Z,17.25
2018-09-04T01:20:36.784Z,17.24
2018-09-04T01:23:04.900Z,17.23
2018-09-04T01:25:32.885Z,17.27
2018-09-04T01:28:00.995Z,17.26
2018-09-04T01:30:29.055Z,17.21
2018-09-04T01:32:57.114Z,17.20
2018-09-04T01:35:25.380Z,17.34
2018-09-04T01:37:53.539Z,17.40
2018-09-04T01:40:21.572Z,17.25
2018-09-04T01:42:49.624Z,17.31
2018-09-04T01:45:17.599Z,17.34
2018-09-04T01:47:45.651Z,17.33
2018-09-04T01:50:13.715Z,17.11
2018-09-04T01:52:41.749Z,17.10
2018-09-04T01:55:09.758Z,17.04
2018-09-04T01:57:37.810Z,17.08
2018-09-04T02:00:07.585Z,16.94
2018-09-04T02:02:35.685Z,16.77
2018-09-04T02:05:03.749Z,16.71
2018-09-04T02:07:31.996Z,16.69
2018-09-04T02:10:00.185Z,16.71
2018-09-04T02:12:28.239Z,16.71
2018-09-04T02:14:56.360Z,16.77
2018-09-04T02:17:24.600Z,16.93
2018-09-04T02:19:52.580Z,16.92
2018-09-04T02:22:20.640Z,16.93
2018-09-04T02:24:48.660Z,16.97
2018-09-04T02:27:16.650Z,17.05
2018-09-04T02:29:44.606Z,17.08
2018-09-04T02:32:12.670Z,17.17
2018-09-04T02:34:40.786Z,17.15
2018-09-04T02:37:09.017Z,17.31
2018-09-04T02:39:37.072Z,17.19
2018-09-04T02:42:05.240Z,17.08
2018-09-04T02:44:33.341Z,17.11
2018-09-04T02:47:01.376Z,17.14
2018-09-04T02:49:29.357Z,17.04
2018-09-04T02:51:57.338Z,17.02
2018-09-04T02:54:25.733Z,17.08
2018-09-04T02:56:53.787Z,17.07
2018-09-04T02:59:22.021Z,17.18
2018-09-04T03:01:50.077Z,17.18
2018-09-04T03:04:18.142Z,17.23
2018-09-04T03:06:46.161Z,17.18
2018-09-04T03:09:14.242Z,17.04
2018-09-04T03:11:42.280Z,16.93
2018-09-04T03:14:10.331Z,16.91
2018-09-04T03:16:38.554Z,16.95
2018-09-04T03:19:06.640Z,16.91
2018-09-04T03:21:34.789Z,16.84
2018-09-04T03:24:02.816Z,16.88
2018-09-04T03:26:30.780Z,17.02
2018-09-04T03:28:58.801Z,16.98
2018-09-04T03:31:26.872Z,16.95
2018-09-04T03:33:54.901Z,16.97
2018-09-04T03:36:23.433Z,16.94
2018-09-04T03:38:51.604Z,16.92
2018-09-04T03:41:19.799Z,16.92
2018-09-04T03:43:47.823Z,17.02
2018-09-04T03:46:15.810Z,17.12
2018-09-04T03:48:43.916Z,17.00
2018-09-04T03:51:12.174Z,16.95
2018-09-04T03:53:40.435Z,17.04
2018-09-04T03:56:08.422Z,16.98
2018-09-04T03:58:36.465Z,16.97
2018-09-04T04:01:04.628Z,17.03
2018-09-04T04:03:32.650Z,16.92
2018-09-04T04:06:00.640Z,16.95
2018-09-04T04:08:28.954Z,16.99
2018-09-04T04:10:56.976Z,16.89
2018-09-04T04:13:24.999Z,17.07
2018-09-04T04:15:53.043Z,17.01
2018-09-04T04:18:21.079Z,16.84
2018-09-04T04:20:55.584Z,17.06
2018-09-04T04:23:23.719Z,16.98
2018-09-04T04:25:51.814Z,16.97
2018-09-04T04:28:19.816Z,16.94
2018-09-04T04:30:48.231Z,16.88
2018-09-04T04:33:16.247Z,16.86
2018-09-04T04:35:44.278Z,16.79
2018-09-04T04:38:12.392Z,16.82
2018-09-04T04:40:40.512Z,16.83
2018-09-04T04:43:08.684Z,16.72
2018-09-04T04:45:36.794Z,16.74
2018-09-04T04:48:04.878Z,16.88
2018-09-04T04:50:33.112Z,16.81
2018-09-04T04:53:01.312Z,16.79
2018-09-04T04:55:29.612Z,16.83
2018-09-04T04:57:57.837Z,16.94
2018-09-04T05:00:26.237Z,16.96
2018-09-04T05:02:54.436Z,16.98
2018-09-04T05:05:22.631Z,17.04
2018-09-04T05:07:50.842Z,17.12
2018-09-04T05:10:19.082Z,17.15
2018-09-04T05:12:48.191Z,17.22
2018-09-04T05:15:16.440Z,17.27
2018-09-04T05:17:44.760Z,17.25
2018-09-04T05:20:18.576Z,17.41
2018-09-04T05:22:46.945Z,17.57
2018-09-04T05:25:15.236Z,17.60
2018-09-04T05:27:43.445Z,17.83
2018-09-04T05:30:11.841Z,18.00
2018-09-04T05:33:18.532Z,18.04
2018-09-04T05:35:49.296Z,18.02
2018-09-04T05:38:17.632Z,17.93
2018-09-04T05:40:45.951Z,17.99
2018-09-04T05:44:18.427Z,17.95
2018-09-04T05:46:49.172Z,17.99
2018-09-04T05:49:22.792Z,18.05
2018-09-04T05:51:51.011Z,18.02
2018-09-04T05:54:19.293Z,18.03
2018-09-04T05:56:47.593Z,18.19
2018-09-04T05:59:15.695Z,18.22
2018-09-04T06:01:44.081Z,18.37
2018-09-04T06:04:12.220Z,18.45
2018-09-04T06:06:40.576Z,18.72
2018-09-04T06:09:08.732Z,18.93
2018-09-04T06:11:36.937Z,19.03
2018-09-04T06:14:04.944Z,19.20
2018-09-04T06:16:32.993Z,19.64
2018-09-04T06:19:00.982Z,20.10
2018-09-04T06:21:29.236Z,21.21
2018-09-04T06:23:57.555Z,22.72
2018-09-04T06:26:25.790Z,23.31
2018-09-04T06:28:54.070Z,23.34
2018-09-04T06:31:22.291Z,23.23
2018-09-04T06:33:50.334Z,23.22
2018-09-04T06:36:18.384Z,22.85
2018-09-04T06:38:46.389Z,23.34
2018-09-04T06:41:14.626Z,23.79
2018-09-04T06:43:42.848Z,24.04
2018-09-04T06:46:11.089Z,24.29
2018-09-04T06:48:39.430Z,24.84
2018-09-04T06:51:07.650Z,24.79
2018-09-04T06:53:35.980Z,25.03
2018-09-04T06:56:04.290Z,24.63
2018-09-04T06:58:32.531Z,23.79
2018-09-04T07:01:00.773Z,23.39
2018-09-04T07:03:28.882Z,23.06
2018-09-04T07:05:57.213Z,22.91
2018-09-04T07:08:25.492Z,23.02
2018-09-04T07:10:53.710Z,22.81
2018-09-04T07:13:21.931Z,23.00
2018-09-04T07:15:50.174Z,23.21
2018-09-04T07:18:18.466Z,23.73
2018-09-04T07:20:46.752Z,25.15
2018-09-04T07:23:15.132Z,25.82
2018-09-04T07:25:43.430Z,26.42
2018-09-04T07:28:11.631Z,27.14
2018-09-04T07:30:39.892Z,27.00
2018-09-04T07:33:08.973Z,26.70
2018-09-04T07:35:37.131Z,27.09
2018-09-04T07:38:05.713Z,27.17
2018-09-04T07:40:33.851Z,26.49
2018-09-04T07:43:02.135Z,26.44
2018-09-04T07:45:30.302Z,25.93
2018-09-04T07:47:58.479Z,25.87
2018-09-04T07:50:26.575Z,25.44
2018-09-04T07:52:54.867Z,25.69
2018-09-04T07:55:23.075Z,25.78
2018-09-04T07:57:51.315Z,25.38
2018-09-04T08:00:19.475Z,25.77
2018-09-04T08:02:47.695Z,26.04
2018-09-04T08:05:15.983Z,26.06
2018-09-04T08:07:44.484Z,26.34
2018-09-04T08:10:12.714Z,27.32
2018-09-04T08:12:40.875Z,28.12
2018-09-04T08:15:08.976Z,28.26
2018-09-04T08:17:37.215Z,29.62
2018-09-04T08:20:05.455Z,28.59
2018-09-04T08:22:33.694Z,26.79
2018-09-04T08:25:01.797Z,26.03
2018-09-04T08:27:30.095Z,26.13
2018-09-04T08:29:58.235Z,27.10
2018-09-04T08:32:26.555Z,27.70
2018-09-04T08:34:54.815Z,28.41
2018-09-04T08:37:23.035Z,29.40
2018-09-04T08:39:51.248Z,29.52
2018-09-04T08:42:19.495Z,29.79
2018-09-04T08:44:49.635Z,30.20
2018-09-04T08:47:18.500Z,31.35
2018-09-04T08:49:46.535Z,31.81
2018-09-04T08:52:14.735Z,31.21
2018-09-04T08:54:43.115Z,31.12
2018-09-04T08:57:11.595Z,32.08
2018-09-04T08:59:39.855Z,31.66
2018-09-04T09:02:07.845Z,32.53
2018-09-04T09:04:36.095Z,32.69
2018-09-04T09:07:04.195Z,34.31
2018-09-04T09:09:32.367Z,32.83
2018-09-04T09:12:00.455Z,32.05
2018-09-04T09:14:28.655Z,32.08
2018-09-04T09:16:56.756Z,32.81
2018-09-04T09:19:24.868Z,32.67
2018-09-04T09:21:53.036Z,32.05
2018-09-04T09:24:21.355Z,30.19
2018-09-04T09:26:49.538Z,29.44
2018-09-04T09:29:17.696Z,28.26
2018-09-04T09:31:45.876Z,28.79
2018-09-04T09:34:14.155Z,28.76
2018-09-04T09:36:42.350Z,29.02
2018-09-04T09:39:11.527Z,28.50
2018-09-04T09:41:39.895Z,28.19
2018-09-04T09:44:08.475Z,27.98
2018-09-04T09:46:36.635Z,27.34
2018-09-04T09:49:04.964Z,27.11
2018-09-04T09:51:33.155Z,26.78
2018-09-04T09:54:01.431Z,26.89
2018-09-04T09:56:29.690Z,26.89
2018-09-04T09:58:57.936Z,27.02
2018-09-04T10:01:35.407Z,26.73
2018-09-04T10:04:09.348Z,26.90
2018-09-04T10:06:37.576Z,27.03
2018-09-04T10:09:08.915Z,26.90
2018-09-04T10:11:37.196Z,26.91
2018-09-04T10:14:05.795Z,26.43
2018-09-04T10:16:34.138Z,26.01
2018-09-04T10:19:02.335Z,26.10
2018-09-04T10:21:30.736Z,26.10
2018-09-04T10:23:59.075Z,25.73
2018-09-04T10:26:27.442Z,26.06
2018-09-04T10:28:55.655Z,26.10
2018-09-04T10:31:23.895Z,26.20
2018-09-04T10:33:52.134Z,26.51
2018-09-04T10:36:20.405Z,26.46
2018-09-04T10:38:48.535Z,26.24
2018-09-04T10:41:16.774Z,25.93
2018-09-04T10:43:44.894Z,25.81
2018-09-04T10:46:14.995Z,26.16
2018-09-04T10:48:43.195Z,26.23
2018-09-04T10:51:11.361Z,26.09
2018-09-04T10:53:39.495Z,26.21
2018-09-04T10:56:07.696Z,26.76
2018-09-04T10:58:35.855Z,27.50
2018-09-04T11:01:04.075Z,28.54
2018-09-04T11:03:32.296Z,29.28
2018-09-04T11:06:00.755Z,30.73
2018-09-04T11:08:28.940Z,31.76
2018-09-04T11:10:57.117Z,31.47
2018-09-04T11:13:25.375Z,31.15
2018-09-04T11:16:00.255Z,30.43
2018-09-04T11:18:28.408Z,31.33
2018-09-04T11:20:56.656Z,30.47
2018-09-04T11:23:24.840Z,30.47
2018-09-04T11:25:53.115Z,30.74
2018-09-04T11:28:22.111Z,30.79
2018-09-04T11:30:50.271Z,28.33
2018-09-04T11:33:18.428Z,27.92
2018-09-04T11:35:46.696Z,28.46
2018-09-04T11:38:14.849Z,28.17
2018-09-04T11:40:43.424Z,28.16
2018-09-04T11:43:11.572Z,27.78
2018-09-04T11:45:39.916Z,27.70
2018-09-04T11:48:08.167Z,27.63
2018-09-04T11:50:38.036Z,27.33
2018-09-04T11:53:06.256Z,27.27
2018-09-04T11:55:39.136Z,27.08
2018-09-04T11:58:19.336Z,27.00
2018-09-04T12:00:48.896Z,27.10
2018-09-04T12:03:17.875Z,27.14
2018-09-04T12:05:46.432Z,27.38
2018-09-04T12:08:16.830Z,27.74
2018-09-04T12:10:56.276Z,27.50
2018-09-04T12:13:31.656Z,27.78
2018-09-04T12:16:01.273Z,27.74
2018-09-04T12:18:34.016Z,27.42
2018-09-04T12:21:07.841Z,27.98
2018-09-04T12:23:36.577Z,28.22
2018-09-04T12:26:15.955Z,28.34
2018-09-04T12:28:44.375Z,27.93
2018-09-04T12:31:14.535Z,28.50
2018-09-04T12:33:48.045Z,28.47
2018-09-04T12:36:17.183Z,27.95
2018-09-04T12:38:49.035Z,27.84
2018-09-04T12:41:28.483Z,27.63
2018-09-04T12:43:57.151Z,27.71
2018-09-04T12:46:30.555Z,28.10
2018-09-04T12:48:59.316Z,28.33
2018-09-04T12:51:27.935Z,28.18
2018-09-04T12:53:58.124Z,27.51
2018-09-04T12:56:26.775Z,27.80
2018-09-04T12:58:55.196Z,28.02
2018-09-04T13:01:24.455Z,27.93
2018-09-04T13:03:55.175Z,27.61
2018-09-04T13:06:24.175Z,27.30
2018-09-04T13:08:52.725Z,27.51
2018-09-04T13:11:21.315Z,27.83
2018-09-04T13:13:50.055Z,27.75
2018-09-04T13:19:03.903Z,27.58
2018-09-04T13:21:32.335Z,27.52
2018-09-04T13:24:00.575Z,27.21
2018-09-04T13:26:29.004Z,27.30
2018-09-04T13:28:57.335Z,27.47
2018-09-04T13:31:25.858Z,27.90
2018-09-04T13:33:54.207Z,27.70
2018-09-04T13:36:22.559Z,27.58
2018-09-04T13:38:50.954Z,27.67
2018-09-04T13:41:19.355Z,27.45
2018-09-04T13:43:47.835Z,27.72
2018-09-04T13:46:16.195Z,27.77
2018-09-04T13:48:44.855Z,27.84
2018-09-04T13:51:13.055Z,27.92
2018-09-04T13:53:41.595Z,28.05
2018-09-04T13:56:09.896Z,27.99
2018-09-04T13:58:44.856Z,27.94
2018-09-04T14:01:13.236Z,27.70
2018-09-04T14:03:41.676Z,27.79
2018-09-04T14:06:10.104Z,27.57
2018-09-04T14:08:38.516Z,27.20
2018-09-04T14:11:06.865Z,26.97
2018-09-04T14:13:35.596Z,27.08
2018-09-04T14:16:06.945Z,27.15
2018-09-04T14:18:35.497Z,27.47
2018-09-04T14:21:03.821Z,27.28
2018-09-04T14:23:32.206Z,27.33
2018-09-04T14:26:00.523Z,27.28
2018-09-04T14:28:43.278Z,26.82
2018-09-04T14:30:57.316Z,26.89
2018-09-04T14:33:25.837Z,27.10
2018-09-04T14:35:54.290Z,27.39
2018-09-04T14:38:22.635Z,27.40
2018-09-04T14:40:51.175Z,27.36
2018-09-04T14:43:19.475Z,27.50
2018-09-04T14:45:47.916Z,27.48
2018-09-04T14:48:16.322Z,27.05
2018-09-04T14:50:44.707Z,27.12
2018-09-04T14:53:12.975Z,27.29
2018-09-04T14:55:41.567Z,27.15
2018-09-04T14:58:09.936Z,27.39
2018-09-04T15:00:38.363Z,27.26
2018-09-04T15:03:06.883Z,27.29
2018-09-04T15:05:35.455Z,27.18
2018-09-04T15:08:03.775Z,27.35
2018-09-04T15:10:32.384Z,27.45
2018-09-04T15:13:00.856Z,27.44
2018-09-04T15:15:29.256Z,27.31
2018-09-04T15:17:57.595Z,27.09
2018-09-04T15:20:26.120Z,27.26
2018-09-04T15:22:54.538Z,27.16
2018-09-04T15:25:23.169Z,27.09
2018-09-04T15:27:51.596Z,27.05
2018-09-04T15:30:19.936Z,27.02
2018-09-04T15:32:48.675Z,26.96
2018-09-04T15:35:17.156Z,26.99
2018-09-04T15:37:45.516Z,26.95
2018-09-04T15:40:13.955Z,26.87
2018-09-04T15:42:42.613Z,26.81
2018-09-04T15:45:10.995Z,26.72
2018-09-04T15:47:39.375Z,26.75
2018-09-04T15:50:07.775Z,26.67
2018-09-04T15:52:36.276Z,26.69
2018-09-04T15:55:04.706Z,26.58
2018-09-04T15:57:33.086Z,26.57
2018-09-04T16:00:01.509Z,26.56
2018-09-04T16:02:29.846Z,26.52
2018-09-04T16:04:58.430Z,26.49
2018-09-04T16:07:26.774Z,26.49
2018-09-04T16:09:55.269Z,26.42
2018-09-04T16:12:23.487Z,26.45
2018-09-04T16:14:51.845Z,26.55
2018-09-04T16:17:20.392Z,26.56
2018-09-04T16:19:48.719Z,26.53
2018-09-04T16:22:17.001Z,26.39
2018-09-04T16:24:45.505Z,26.30
2018-09-04T16:27:13.756Z,26.22
2018-09-04T16:29:42.217Z,26.19
2018-09-04T16:32:10.596Z,26.19
2018-09-04T16:34:38.837Z,26.21
2018-09-04T16:37:07.124Z,26.18
2018-09-04T16:39:35.464Z,26.17
2018-09-04T16:42:03.835Z,26.10
2018-09-04T16:44:32.129Z,26.08
2018-09-04T16:47:00.530Z,26.00
2018-09-04T16:49:28.761Z,25.97
2018-09-04T16:51:59.001Z,25.89
2018-09-04T16:54:28.061Z,25.76
2018-09-04T16:56:56.369Z,25.72
2018-09-04T16:59:24.702Z,25.68
2018-09-04T17:01:53.002Z,25.69
2018-09-04T17:04:21.308Z,25.66
2018-09-04T17:06:49.680Z,25.59
2018-09-04T17:09:18.021Z,25.58
2018-09-04T17:11:46.710Z,25.51
2018-09-04T17:14:15.046Z,25.47
2018-09-04T17:16:43.475Z,25.45
2018-09-04T17:19:11.834Z,25.39
2018-09-04T17:21:40.061Z,25.35
2018-09-04T17:24:08.360Z,25.27
2018-09-04T17:26:36.845Z,25.17
2018-09-04T17:29:05.258Z,25.09
2018-09-04T17:31:33.694Z,25.00
2018-09-04T17:34:02.118Z,24.88
2018-09-04T17:36:30.397Z,24.74
2018-09-04T17:39:28.679Z,24.62
2018-09-04T17:41:57.072Z,24.56
2018-09-04T17:44:25.379Z,24.45
2018-09-04T17:46:53.642Z,24.36
2018-09-04T17:49:22.107Z,24.27
2018-09-04T17:51:50.532Z,24.19
2018-09-04T17:54:18.806Z,24.11
2018-09-04T17:56:47.207Z,24.03
2018-09-04T17:59:16.512Z,23.99
2018-09-04T18:01:45.017Z,23.81
2018-09-04T18:04:13.291Z,23.52
2018-09-04T18:06:41.605Z,23.35
2018-09-04T18:09:09.967Z,23.18
2018-09-04T18:11:38.305Z,23.11
2018-09-04T18:14:06.531Z,22.97
2018-09-04T18:16:34.875Z,22.88
2018-09-04T18:19:03.194Z,22.76
2018-09-04T18:21:31.686Z,22.62
2018-09-04T18:23:59.911Z,22.45
2018-09-04T18:26:28.268Z,22.35
2018-09-04T18:28:56.548Z,22.15
2018-09-04T18:31:24.869Z,21.88
2018-09-04T18:33:53.208Z,21.75
2018-09-04T18:36:21.562Z,21.59
2018-09-04T18:38:50.180Z,21.48
2018-09-04T18:41:18.749Z,21.51
2018-09-04T18:43:47.185Z,21.45
2018-09-04T18:46:15.468Z,21.38
2018-09-04T18:48:43.888Z,21.36
2018-09-04T18:51:12.152Z,21.35
2018-09-04T18:56:07.989Z,21.34
2018-09-04T18:58:36.278Z,21.25
2018-09-04T19:01:04.737Z,21.16
2018-09-04T19:03:33.245Z,21.12
2018-09-04T19:06:01.521Z,21.09
2018-09-04T19:08:29.823Z,20.98
2018-09-04T19:10:58.156Z,20.90
2018-09-04T19:13:26.548Z,20.80
2018-09-04T19:15:55.034Z,20.77
2018-09-04T19:18:23.500Z,20.73
2018-09-04T19:20:52.909Z,20.64
2018-09-04T19:23:21.381Z,20.49
2018-09-04T19:25:49.776Z,20.24
2018-09-04T19:28:18.136Z,20.17
2018-09-04T19:30:47.051Z,20.18
2018-09-04T19:33:15.408Z,20.06
2018-09-04T19:35:43.894Z,19.99
2018-09-04T19:38:12.209Z,20.00
2018-09-04T19:40:40.497Z,19.97
2018-09-04T19:43:09.172Z,20.00
2018-09-04T19:45:37.701Z,20.01
2018-09-04T19:48:06.262Z,20.06
2018-09-04T19:50:34.816Z,20.03
2018-09-04T19:53:03.112Z,19.82
2018-09-04T19:55:31.471Z,19.84
2018-09-04T19:57:59.884Z,19.68
2018-09-04T20:00:28.300Z,19.68
2018-09-04T20:02:56.777Z,19.69
2018-09-04T20:05:25.237Z,19.65
2018-09-04T20:07:53.857Z,19.60
2018-09-04T20:10:22.297Z,19.55
2018-09-04T20:12:50.832Z,19.63
2018-09-04T20:15:19.312Z,19.57
2018-09-04T20:17:47.893Z,19.51
2018-09-04T20:20:16.296Z,19.47
2018-09-04T20:22:44.705Z,19.35
2018-09-04T20:25:13.206Z,19.30
2018-09-04T20:27:41.478Z,19.30
2018-09-04T20:30:09.876Z,19.29
2018-09-04T20:32:38.155Z,19.28
2018-09-04T20:35:06.676Z,19.25
2018-09-04T20:37:35.235Z,19.24
2018-09-04T20:40:03.859Z,19.10
2018-09-04T20:42:32.181Z,19.05
2018-09-04T20:45:00.500Z,19.04
2018-09-04T20:47:28.780Z,18.93
2018-09-04T20:49:57.249Z,18.90
2018-09-04T20:52:25.905Z,18.97
2018-09-04T20:54:54.507Z,18.87
2018-09-04T20:57:21.354Z,18.55
2018-09-04T21:00:01.314Z,18.61
2018-09-04T21:02:40.409Z,18.62
2018-09-04T21:05:19.721Z,18.65
2018-09-04T21:08:59.193Z,18.57
2018-09-04T21:11:27.570Z,18.47
2018-09-04T21:13:56.230Z,18.45
2018-09-04T21:16:24.508Z,18.19
2018-09-04T21:18:53.122Z,18.19
2018-09-04T21:21:21.578Z,18.11
2018-09-04T21:23:49.858Z,18.09
2018-09-04T21:26:18.340Z,17.98
2018-09-04T21:28:46.761Z,18.02
2018-09-04T21:31:15.108Z,18.06
2018-09-04T21:33:43.760Z,18.06
2018-09-04T21:36:12.080Z,18.02
2018-09-04T21:38:40.540Z,17.87
2018-09-04T21:41:08.920Z,17.87
2018-09-04T21:43:37.224Z,17.83
2018-09-04T21:46:05.818Z,17.74
2018-09-04T21:48:34.057Z,17.79
2018-09-04T21:51:02.346Z,17.88
2018-09-04T21:53:30.545Z,17.88
2018-09-04T21:55:58.746Z,17.75
2018-09-04T21:58:27.006Z,17.72
2018-09-04T22:00:55.527Z,17.61
2018-09-04T22:03:24.026Z,17.52
2018-09-04T22:05:52.506Z,17.42
2018-09-04T22:08:20.837Z,17.42
2018-09-04T22:10:49.186Z,17.39
2018-09-04T22:13:17.505Z,17.33
2018-09-04T22:15:45.747Z,17.25
2018-09-04T22:18:14.007Z,17.21
2018-09-04T22:20:42.349Z,17.24
2018-09-04T22:23:10.683Z,17.24
2018-09-04T22:25:41.907Z,17.20
2018-09-04T22:28:10.415Z,17.13
2018-09-04T22:30:38.846Z,17.01
2018-09-04T22:33:07.107Z,17.03
2018-09-04T22:35:35.395Z,17.05
2018-09-04T22:38:03.775Z,16.92
2018-09-04T22:40:32.107Z,16.90
2018-09-04T22:43:00.367Z,16.83
2018-09-04T22:45:28.747Z,16.78
2018-09-04T22:47:58.410Z,16.79
2018-09-04T22:50:32.187Z,16.72
2018-09-04T22:53:00.508Z,16.70
2018-09-04T22:55:28.767Z,16.75
2018-09-04T22:57:57.110Z,16.65
2018-09-04T23:00:25.379Z,16.55
2018-09-04T23:02:53.666Z,16.51
2018-09-04T23:05:21.865Z,16.52
2018-09-04T23:07:50.220Z,16.47
2018-09-04T23:10:19.367Z,16.38
2018-09-04T23:12:47.569Z,16.34
2018-09-04T23:15:15.636Z,16.26
2018-09-04T23:17:44.007Z,16.29
2018-09-04T23:20:12.270Z,16.29
2018-09-04T23:22:40.643Z,16.35
2018-09-04T23:25:08.922Z,16.45
2018-09-04T23:27:37.239Z,16.43
2018-09-04T23:30:05.804Z,16.37
2018-09-04T23:32:34.110Z,16.40
2018-09-04T23:35:02.350Z,16.42
2018-09-04T23:37:31.746Z,16.35
2018-09-04T23:40:00.013Z,16.24
2018-09-04T23:42:32.235Z,16.18
2018-09-04T23:45:01.742Z,16.10
2018-09-04T23:47:30.098Z,15.99
2018-09-04T23:49:58.234Z,15.98
2018-09-04T23:52:26.400Z,15.93
2018-09-04T23:54:54.595Z,15.92
2018-09-04T23:57:22.778Z,15.85
2018-09-04T23:59:50.850Z,15.94
